sensor_id;sensor_type;location;lat;lon;timestamp;P1;durP1;ratioP1;P2;durP2;ratioP2
18834;SDS011;9546;59.262;18.036;2022-08-02T00:01:32;1.25;;;1.13;;
18834;SDS011;9546;59.262;18.036;2022-08-02T00:04:00;2.97;;;1.40;;
18834;SDS011;9546;59.262;18.036;2022-08-02T00:06:26;3.22;;;1.95;;
18834;SDS011;9546;59.262;18.036;2022-08-02T00:08:53;1.65;;;1.45;;
18834;SDS011;9546;59.262;18.036;2022-08-02T00:11:19;1.83;;;1.50;;
18834;SDS011;9546;59.262;18.036;2022-08-02T00:13:46;3.42;;;1.38;;
18834;SDS011;9546;59.262;18.036;2022-08-02T00:16:12;2.00;;;1.30;;
18834;SDS011;9546;59.262;18.036;2022-08-02T00:18:39;3.28;;;1.63;;
18834;SDS011;9546;59.262;18.036;2022-08-02T00:21:07;4.18;;;1.40;;
18834;SDS011;9546;59.262;18.036;2022-08-02T00:23:33;2.05;;;1.48;;
18834;SDS011;9546;59.262;18.036;2022-08-02T00:26:00;3.25;;;1.38;;
18834;SDS011;9546;59.262;18.036;2022-08-02T00:28:27;2.03;;;1.30;;
18834;SDS011;9546;59.262;18.036;2022-08-02T00:30:53;2.95;;;1.77;;
18834;SDS011;9546;59.262;18.036;2022-08-02T00:33:20;4.05;;;1.63;;
18834;SDS011;9546;59.262;18.036;2022-08-02T00:35:46;1.92;;;1.60;;
18834;SDS011;9546;59.262;18.036;2022-08-02T00:38:14;4.72;;;2.00;;
18834;SDS011;9546;59.262;18.036;2022-08-02T00:40:45;4.22;;;1.38;;
18834;SDS011;9546;59.262;18.036;2022-08-02T00:43:12;3.13;;;1.23;;
18834;SDS011;9546;59.262;18.036;2022-08-02T00:45:39;3.20;;;1.50;;
18834;SDS011;9546;59.262;18.036;2022-08-02T00:48:07;2.35;;;1.33;;
18834;SDS011;9546;59.262;18.036;2022-08-02T00:50:33;1.83;;;1.33;;
18834;SDS011;9546;59.262;18.036;2022-08-02T01:12:33;2.13;;;1.50;;
18834;SDS011;9546;59.262;18.036;2022-08-02T01:15:02;2.05;;;1.45;;
18834;SDS011;9546;59.262;18.036;2022-08-02T01:17:31;2.22;;;1.80;;
18834;SDS011;9546;59.262;18.036;2022-08-02T01:20:01;2.28;;;1.40;;
18834;SDS011;9546;59.262;18.036;2022-08-02T01:25:20;2.72;;;1.80;;
18834;SDS011;9546;59.262;18.036;2022-08-02T01:28:00;1.98;;;1.58;;
18834;SDS011;9546;59.262;18.036;2022-08-02T01:30:28;3.00;;;1.70;;
18834;SDS011;9546;59.262;18.036;2022-08-02T01:32:57;1.90;;;1.70;;
18834;SDS011;9546;59.262;18.036;2022-08-02T01:35:26;3.05;;;1.55;;
18834;SDS011;9546;59.262;18.036;2022-08-02T01:37:55;3.03;;;1.58;;
18834;SDS011;9546;59.262;18.036;2022-08-02T01:40:24;2.55;;;1.60;;
18834;SDS011;9546;59.262;18.036;2022-08-02T01:42:53;2.97;;;1.67;;
18834;SDS011;9546;59.262;18.036;2022-08-02T01:45:23;2.40;;;1.80;;
18834;SDS011;9546;59.262;18.036;2022-08-02T01:47:50;2.40;;;1.50;;
18834;SDS011;9546;59.262;18.036;2022-08-02T01:50:19;2.65;;;2.00;;
18834;SDS011;9546;59.262;18.036;2022-08-02T01:52:47;2.00;;;1.85;;
18834;SDS011;9546;59.262;18.036;2022-08-02T01:55:17;2.58;;;1.77;;
18834;SDS011;9546;59.262;18.036;2022-08-02T01:57:46;1.90;;;1.75;;
18834;SDS011;9546;59.262;18.036;2022-08-02T02:00:14;1.90;;;1.70;;
18834;SDS011;9546;59.262;18.036;2022-08-02T02:02:42;2.60;;;1.73;;
18834;SDS011;9546;59.262;18.036;2022-08-02T02:05:12;2.28;;;1.80;;
18834;SDS011;9546;59.262;18.036;2022-08-02T02:07:39;2.70;;;1.73;;
18834;SDS011;9546;59.262;18.036;2022-08-02T02:10:07;2.67;;;1.90;;
18834;SDS011;9546;59.262;18.036;2022-08-02T02:12:35;2.13;;;1.85;;
18834;SDS011;9546;59.262;18.036;2022-08-02T02:15:05;2.17;;;1.95;;
18834;SDS011;9546;59.262;18.036;2022-08-02T02:17:33;1.92;;;1.75;;
18834;SDS011;9546;59.262;18.036;2022-08-02T02:20:02;2.35;;;1.83;;
18834;SDS011;9546;59.262;18.036;2022-08-02T02:22:29;3.13;;;1.88;;
18834;SDS011;9546;59.262;18.036;2022-08-02T02:24:57;2.67;;;1.75;;
18834;SDS011;9546;59.262;18.036;2022-08-02T02:27:23;2.05;;;1.90;;
18834;SDS011;9546;59.262;18.036;2022-08-02T02:29:50;2.20;;;1.75;;
18834;SDS011;9546;59.262;18.036;2022-08-02T02:32:17;2.88;;;1.90;;
18834;SDS011;9546;59.262;18.036;2022-08-02T02:34:45;2.10;;;1.90;;
18834;SDS011;9546;59.262;18.036;2022-08-02T02:37:16;2.80;;;2.10;;
18834;SDS011;9546;59.262;18.036;2022-08-02T02:39:44;5.05;;;2.05;;
18834;SDS011;9546;59.262;18.036;2022-08-02T02:42:12;2.40;;;2.10;;
18834;SDS011;9546;59.262;18.036;2022-08-02T02:44:40;3.75;;;2.30;;
18834;SDS011;9546;59.262;18.036;2022-08-02T02:47:08;2.45;;;2.20;;
18834;SDS011;9546;59.262;18.036;2022-08-02T02:49:35;4.65;;;2.10;;
18834;SDS011;9546;59.262;18.036;2022-08-02T03:12:22;4.22;;;2.67;;
18834;SDS011;9546;59.262;18.036;2022-08-02T03:14:48;3.83;;;2.85;;
18834;SDS011;9546;59.262;18.036;2022-08-02T03:17:15;2.60;;;2.40;;
18834;SDS011;9546;59.262;18.036;2022-08-02T03:19:41;5.57;;;3.15;;
18834;SDS011;9546;59.262;18.036;2022-08-02T03:22:08;3.55;;;2.88;;
18834;SDS011;9546;59.262;18.036;2022-08-02T03:24:35;6.43;;;2.80;;
18834;SDS011;9546;59.262;18.036;2022-08-02T03:27:02;2.65;;;2.45;;
18834;SDS011;9546;59.262;18.036;2022-08-02T03:29:30;3.08;;;2.78;;
18834;SDS011;9546;59.262;18.036;2022-08-02T03:31:56;4.55;;;2.78;;
18834;SDS011;9546;59.262;18.036;2022-08-02T03:34:23;3.92;;;2.50;;
18834;SDS011;9546;59.262;18.036;2022-08-02T03:36:50;2.60;;;2.38;;
18834;SDS011;9546;59.262;18.036;2022-08-02T03:39:17;2.72;;;2.50;;
18834;SDS011;9546;59.262;18.036;2022-08-02T03:41:44;2.67;;;2.47;;
18834;SDS011;9546;59.262;18.036;2022-08-02T03:44:11;3.40;;;2.40;;
18834;SDS011;9546;59.262;18.036;2022-08-02T03:46:40;2.20;;;2.08;;
18834;SDS011;9546;59.262;18.036;2022-08-02T03:49:07;2.88;;;2.10;;
18834;SDS011;9546;59.262;18.036;2022-08-02T03:51:34;3.05;;;1.88;;
18834;SDS011;9546;59.262;18.036;2022-08-02T03:54:01;3.70;;;2.25;;
18834;SDS011;9546;59.262;18.036;2022-08-02T03:56:27;3.83;;;2.13;;
18834;SDS011;9546;59.262;18.036;2022-08-02T03:59:04;2.95;;;2.15;;
18834;SDS011;9546;59.262;18.036;2022-08-02T04:01:30;4.75;;;2.03;;
18834;SDS011;9546;59.262;18.036;2022-08-02T04:03:58;3.83;;;2.20;;
18834;SDS011;9546;59.262;18.036;2022-08-02T04:06:25;3.15;;;2.50;;
18834;SDS011;9546;59.262;18.036;2022-08-02T04:08:51;2.08;;;1.85;;
18834;SDS011;9546;59.262;18.036;2022-08-02T04:11:18;4.68;;;2.58;;
18834;SDS011;9546;59.262;18.036;2022-08-02T04:13:56;3.53;;;2.28;;
18834;SDS011;9546;59.262;18.036;2022-08-02T04:16:27;3.38;;;2.60;;
18834;SDS011;9546;59.262;18.036;2022-08-02T04:18:55;3.00;;;2.42;;
18834;SDS011;9546;59.262;18.036;2022-08-02T04:21:25;4.63;;;2.35;;
18834;SDS011;9546;59.262;18.036;2022-08-02T04:23:52;2.85;;;2.47;;
18834;SDS011;9546;59.262;18.036;2022-08-02T04:26:19;2.60;;;2.10;;
18834;SDS011;9546;59.262;18.036;2022-08-02T04:28:46;2.67;;;2.40;;
18834;SDS011;9546;59.262;18.036;2022-08-02T04:31:13;4.05;;;2.60;;
18834;SDS011;9546;59.262;18.036;2022-08-02T04:33:40;3.97;;;2.42;;
18834;SDS011;9546;59.262;18.036;2022-08-02T04:36:07;5.75;;;2.20;;
18834;SDS011;9546;59.262;18.036;2022-08-02T04:38:36;6.32;;;2.38;;
18834;SDS011;9546;59.262;18.036;2022-08-02T04:41:02;2.92;;;2.40;;
18834;SDS011;9546;59.262;18.036;2022-08-02T04:43:29;4.07;;;2.53;;
18834;SDS011;9546;59.262;18.036;2022-08-02T04:45:55;3.42;;;2.30;;
18834;SDS011;9546;59.262;18.036;2022-08-02T04:48:22;2.55;;;2.30;;
18834;SDS011;9546;59.262;18.036;2022-08-02T04:50:49;3.50;;;2.55;;
18834;SDS011;9546;59.262;18.036;2022-08-02T05:11:49;2.80;;;2.53;;
18834;SDS011;9546;59.262;18.036;2022-08-02T05:14:16;4.97;;;2.63;;
18834;SDS011;9546;59.262;18.036;2022-08-02T05:16:42;2.80;;;2.60;;
18834;SDS011;9546;59.262;18.036;2022-08-02T05:19:09;2.35;;;2.15;;
18834;SDS011;9546;59.262;18.036;2022-08-02T05:21:36;2.53;;;2.33;;
18834;SDS011;9546;59.262;18.036;2022-08-02T05:24:03;3.28;;;2.65;;
18834;SDS011;9546;59.262;18.036;2022-08-02T05:26:30;3.47;;;2.42;;
18834;SDS011;9546;59.262;18.036;2022-08-02T05:28:58;2.58;;;2.15;;
18834;SDS011;9546;59.262;18.036;2022-08-02T05:31:24;6.60;;;2.15;;
18834;SDS011;9546;59.262;18.036;2022-08-02T05:33:51;3.80;;;1.90;;
18834;SDS011;9546;59.262;18.036;2022-08-02T05:36:17;2.75;;;2.00;;
18834;SDS011;9546;59.262;18.036;2022-08-02T05:38:44;2.08;;;1.70;;
18834;SDS011;9546;59.262;18.036;2022-08-02T05:41:10;1.92;;;1.73;;
18834;SDS011;9546;59.262;18.036;2022-08-02T05:43:37;4.63;;;1.80;;
18834;SDS011;9546;59.262;18.036;2022-08-02T05:46:05;2.70;;;2.05;;
18834;SDS011;9546;59.262;18.036;2022-08-02T05:48:32;2.75;;;2.15;;
18834;SDS011;9546;59.262;18.036;2022-08-02T05:51:00;1.80;;;1.70;;
18834;SDS011;9546;59.262;18.036;2022-08-02T05:53:29;2.92;;;2.33;;
18834;SDS011;9546;59.262;18.036;2022-08-02T05:56:01;2.38;;;1.92;;
18834;SDS011;9546;59.262;18.036;2022-08-02T05:58:34;1.88;;;1.77;;
18834;SDS011;9546;59.262;18.036;2022-08-02T06:01:01;2.60;;;1.60;;
18834;SDS011;9546;59.262;18.036;2022-08-02T06:03:31;2.47;;;2.10;;
18834;SDS011;9546;59.262;18.036;2022-08-02T06:06:03;1.60;;;1.50;;
18834;SDS011;9546;59.262;18.036;2022-08-02T06:08:31;3.53;;;1.85;;
18834;SDS011;9546;59.262;18.036;2022-08-02T06:10:59;1.38;;;1.27;;
18834;SDS011;9546;59.262;18.036;2022-08-02T06:13:26;1.95;;;1.30;;
18834;SDS011;9546;59.262;18.036;2022-08-02T06:15:53;2.13;;;1.60;;
18834;SDS011;9546;59.262;18.036;2022-08-02T06:18:23;1.90;;;1.70;;
18834;SDS011;9546;59.262;18.036;2022-08-02T06:20:52;2.50;;;1.42;;
18834;SDS011;9546;59.262;18.036;2022-08-02T06:23:20;2.70;;;1.80;;
18834;SDS011;9546;59.262;18.036;2022-08-02T06:25:49;2.03;;;1.67;;
18834;SDS011;9546;59.262;18.036;2022-08-02T06:28:15;1.80;;;1.50;;
18834;SDS011;9546;59.262;18.036;2022-08-02T06:30:43;1.50;;;1.40;;
18834;SDS011;9546;59.262;18.036;2022-08-02T06:33:10;1.70;;;1.60;;
18834;SDS011;9546;59.262;18.036;2022-08-02T06:35:40;1.50;;;1.40;;
18834;SDS011;9546;59.262;18.036;2022-08-02T06:38:12;3.42;;;1.40;;
18834;SDS011;9546;59.262;18.036;2022-08-02T06:40:41;3.25;;;1.65;;
18834;SDS011;9546;59.262;18.036;2022-08-02T06:43:10;4.15;;;1.70;;
18834;SDS011;9546;59.262;18.036;2022-08-02T06:45:37;4.15;;;2.13;;
18834;SDS011;9546;59.262;18.036;2022-08-02T06:48:04;3.03;;;1.60;;
18834;SDS011;9546;59.262;18.036;2022-08-02T06:50:32;5.75;;;1.70;;
18834;SDS011;9546;59.262;18.036;2022-08-02T07:12:05;2.40;;;1.60;;
18834;SDS011;9546;59.262;18.036;2022-08-02T07:14:32;3.33;;;1.65;;
18834;SDS011;9546;59.262;18.036;2022-08-02T07:16:59;1.98;;;1.60;;
18834;SDS011;9546;59.262;18.036;2022-08-02T07:19:26;3.50;;;1.50;;
18834;SDS011;9546;59.262;18.036;2022-08-02T07:21:53;1.95;;;1.40;;
18834;SDS011;9546;59.262;18.036;2022-08-02T07:24:20;2.63;;;1.40;;
18834;SDS011;9546;59.262;18.036;2022-08-02T07:26:47;2.45;;;1.20;;
18834;SDS011;9546;59.262;18.036;2022-08-02T07:29:15;1.98;;;1.38;;
18834;SDS011;9546;59.262;18.036;2022-08-02T07:31:42;1.30;;;1.20;;
18834;SDS011;9546;59.262;18.036;2022-08-02T07:34:09;1.95;;;1.42;;
18834;SDS011;9546;59.262;18.036;2022-08-02T07:36:35;4.10;;;1.50;;
18834;SDS011;9546;59.262;18.036;2022-08-02T07:39:02;4.22;;;1.50;;
18834;SDS011;9546;59.262;18.036;2022-08-02T07:41:29;5.65;;;1.60;;
18834;SDS011;9546;59.262;18.036;2022-08-02T07:43:56;1.95;;;1.23;;
18834;SDS011;9546;59.262;18.036;2022-08-02T07:46:24;2.25;;;1.45;;
18834;SDS011;9546;59.262;18.036;2022-08-02T07:48:51;1.70;;;1.60;;
18834;SDS011;9546;59.262;18.036;2022-08-02T07:51:18;3.45;;;1.40;;
18834;SDS011;9546;59.262;18.036;2022-08-02T07:53:45;2.22;;;1.33;;
18834;SDS011;9546;59.262;18.036;2022-08-02T07:56:12;1.38;;;1.27;;
18834;SDS011;9546;59.262;18.036;2022-08-02T07:58:39;4.03;;;1.50;;
18834;SDS011;9546;59.262;18.036;2022-08-02T08:01:06;4.43;;;1.40;;
18834;SDS011;9546;59.262;18.036;2022-08-02T08:03:35;2.35;;;1.40;;
18834;SDS011;9546;59.262;18.036;2022-08-02T08:06:02;1.98;;;1.40;;
18834;SDS011;9546;59.262;18.036;2022-08-02T08:08:29;7.20;;;2.50;;
18834;SDS011;9546;59.262;18.036;2022-08-02T08:10:55;4.72;;;1.58;;
18834;SDS011;9546;59.262;18.036;2022-08-02T08:13:22;2.30;;;1.40;;
18834;SDS011;9546;59.262;18.036;2022-08-02T08:15:49;1.83;;;1.45;;
18834;SDS011;9546;59.262;18.036;2022-08-02T08:18:16;2.88;;;1.15;;
18834;SDS011;9546;59.262;18.036;2022-08-02T08:20:44;1.88;;;1.40;;
18834;SDS011;9546;59.262;18.036;2022-08-02T08:23:11;1.92;;;1.40;;
18834;SDS011;9546;59.262;18.036;2022-08-02T08:25:38;2.15;;;1.40;;
18834;SDS011;9546;59.262;18.036;2022-08-02T08:28:04;1.38;;;1.25;;
18834;SDS011;9546;59.262;18.036;2022-08-02T08:30:31;5.68;;;1.40;;
18834;SDS011;9546;59.262;18.036;2022-08-02T08:32:58;1.77;;;1.15;;
18834;SDS011;9546;59.262;18.036;2022-08-02T08:35:25;3.30;;;1.25;;
18834;SDS011;9546;59.262;18.036;2022-08-02T08:37:53;1.40;;;1.00;;
18834;SDS011;9546;59.262;18.036;2022-08-02T08:40:20;1.77;;;0.95;;
18834;SDS011;9546;59.262;18.036;2022-08-02T08:42:47;2.58;;;1.00;;
18834;SDS011;9546;59.262;18.036;2022-08-02T08:45:13;1.20;;;1.05;;
18834;SDS011;9546;59.262;18.036;2022-08-02T08:47:42;0.80;;;0.80;;
18834;SDS011;9546;59.262;18.036;2022-08-02T08:50:14;1.23;;;1.02;;
18834;SDS011;9546;59.262;18.036;2022-08-02T09:12:25;2.28;;;0.85;;
18834;SDS011;9546;59.262;18.036;2022-08-02T09:14:51;0.80;;;0.80;;
18834;SDS011;9546;59.262;18.036;2022-08-02T09:17:18;0.70;;;0.70;;
18834;SDS011;9546;59.262;18.036;2022-08-02T09:19:46;2.08;;;0.90;;
18834;SDS011;9546;59.262;18.036;2022-08-02T09:22:12;1.38;;;0.80;;
18834;SDS011;9546;59.262;18.036;2022-08-02T09:24:40;1.23;;;0.70;;
18834;SDS011;9546;59.262;18.036;2022-08-02T09:27:09;0.80;;;0.80;;
18834;SDS011;9546;59.262;18.036;2022-08-02T09:29:37;2.70;;;1.10;;
18834;SDS011;9546;59.262;18.036;2022-08-02T09:32:04;1.58;;;0.80;;
18834;SDS011;9546;59.262;18.036;2022-08-02T09:34:42;0.80;;;0.80;;
18834;SDS011;9546;59.262;18.036;2022-08-02T09:37:16;0.80;;;0.70;;
18834;SDS011;9546;59.262;18.036;2022-08-02T09:39:46;1.58;;;0.80;;
18834;SDS011;9546;59.262;18.036;2022-08-02T09:42:12;0.80;;;0.80;;
18834;SDS011;9546;59.262;18.036;2022-08-02T09:44:40;1.13;;;0.70;;
18834;SDS011;9546;59.262;18.036;2022-08-02T09:47:17;1.15;;;1.02;;
18834;SDS011;9546;59.262;18.036;2022-08-02T09:49:44;1.48;;;1.38;;
18834;SDS011;9546;59.262;18.036;2022-08-02T09:52:11;1.20;;;0.70;;
18834;SDS011;9546;59.262;18.036;2022-08-02T09:54:38;4.00;;;0.90;;
18834;SDS011;9546;59.262;18.036;2022-08-02T09:57:04;0.77;;;0.73;;
18834;SDS011;9546;59.262;18.036;2022-08-02T09:59:31;1.60;;;0.80;;
18834;SDS011;9546;59.262;18.036;2022-08-02T10:01:59;0.80;;;0.80;;
18834;SDS011;9546;59.262;18.036;2022-08-02T10:04:27;0.88;;;0.80;;
18834;SDS011;9546;59.262;18.036;2022-08-02T10:06:54;0.80;;;0.70;;
18834;SDS011;9546;59.262;18.036;2022-08-02T10:09:23;0.95;;;0.90;;
18834;SDS011;9546;59.262;18.036;2022-08-02T10:11:52;1.13;;;1.00;;
18834;SDS011;9546;59.262;18.036;2022-08-02T10:14:19;1.58;;;0.70;;
18834;SDS011;9546;59.262;18.036;2022-08-02T10:16:47;1.58;;;0.95;;
18834;SDS011;9546;59.262;18.036;2022-08-02T10:19:15;1.08;;;0.73;;
18834;SDS011;9546;59.262;18.036;2022-08-02T10:21:43;0.70;;;0.70;;
18834;SDS011;9546;59.262;18.036;2022-08-02T10:24:10;3.75;;;0.68;;
18834;SDS011;9546;59.262;18.036;2022-08-02T10:26:38;0.70;;;0.50;;
18834;SDS011;9546;59.262;18.036;2022-08-02T10:29:04;0.93;;;0.50;;
18834;SDS011;9546;59.262;18.036;2022-08-02T10:31:33;0.90;;;0.80;;
18834;SDS011;9546;59.262;18.036;2022-08-02T10:34:02;1.08;;;0.80;;
18834;SDS011;9546;59.262;18.036;2022-08-02T10:36:31;2.15;;;0.80;;
18834;SDS011;9546;59.262;18.036;2022-08-02T10:39:00;0.65;;;0.63;;
18834;SDS011;9546;59.262;18.036;2022-08-02T10:41:43;1.75;;;0.60;;
18834;SDS011;9546;59.262;18.036;2022-08-02T10:44:24;1.67;;;0.60;;
18834;SDS011;9546;59.262;18.036;2022-08-02T10:46:51;0.60;;;0.47;;
18834;SDS011;9546;59.262;18.036;2022-08-02T10:49:18;0.93;;;0.50;;
18834;SDS011;9546;59.262;18.036;2022-08-02T11:12:31;0.60;;;0.40;;
18834;SDS011;9546;59.262;18.036;2022-08-02T11:14:58;4.25;;;0.80;;
18834;SDS011;9546;59.262;18.036;2022-08-02T11:17:28;0.50;;;0.47;;
18834;SDS011;9546;59.262;18.036;2022-08-02T11:20:17;1.27;;;0.50;;
18834;SDS011;9546;59.262;18.036;2022-08-02T11:22:46;0.93;;;0.45;;
18834;SDS011;9546;59.262;18.036;2022-08-02T11:25:32;1.83;;;0.50;;
18834;SDS011;9546;59.262;18.036;2022-08-02T11:28:08;2.20;;;0.95;;
18834;SDS011;9546;59.262;18.036;2022-08-02T11:30:37;1.10;;;0.70;;
18834;SDS011;9546;59.262;18.036;2022-08-02T11:33:04;0.90;;;0.50;;
18834;SDS011;9546;59.262;18.036;2022-08-02T11:35:32;0.55;;;0.55;;
18834;SDS011;9546;59.262;18.036;2022-08-02T11:38:16;1.13;;;0.50;;
18834;SDS011;9546;59.262;18.036;2022-08-02T11:40:44;0.63;;;0.52;;
18834;SDS011;9546;59.262;18.036;2022-08-02T11:43:18;3.65;;;0.52;;
18834;SDS011;9546;59.262;18.036;2022-08-02T11:45:46;1.67;;;0.60;;
18834;SDS011;9546;59.262;18.036;2022-08-02T11:48:14;1.13;;;0.40;;
18834;SDS011;9546;59.262;18.036;2022-08-02T11:51:06;0.60;;;0.50;;
18834;SDS011;9546;59.262;18.036;2022-08-02T11:53:43;1.55;;;0.50;;
18834;SDS011;9546;59.262;18.036;2022-08-02T11:56:14;1.33;;;0.40;;
18834;SDS011;9546;59.262;18.036;2022-08-02T12:01:30;0.45;;;0.45;;
18834;SDS011;9546;59.262;18.036;2022-08-02T12:03:58;1.85;;;0.40;;
18834;SDS011;9546;59.262;18.036;2022-08-02T12:06:26;0.45;;;0.40;;
18834;SDS011;9546;59.262;18.036;2022-08-02T12:08:58;2.75;;;1.00;;
18834;SDS011;9546;59.262;18.036;2022-08-02T12:11:25;1.15;;;0.50;;
18834;SDS011;9546;59.262;18.036;2022-08-02T12:13:52;0.40;;;0.40;;
18834;SDS011;9546;59.262;18.036;2022-08-02T12:16:20;0.63;;;0.40;;
18834;SDS011;9546;59.262;18.036;2022-08-02T12:19:05;0.40;;;0.40;;
18834;SDS011;9546;59.262;18.036;2022-08-02T12:21:44;0.65;;;0.55;;
18834;SDS011;9546;59.262;18.036;2022-08-02T12:24:11;0.50;;;0.43;;
18834;SDS011;9546;59.262;18.036;2022-08-02T12:26:41;1.20;;;0.38;;
18834;SDS011;9546;59.262;18.036;2022-08-02T12:29:09;0.40;;;0.30;;
18834;SDS011;9546;59.262;18.036;2022-08-02T12:31:41;0.98;;;0.40;;
18834;SDS011;9546;59.262;18.036;2022-08-02T12:34:12;0.47;;;0.40;;
18834;SDS011;9546;59.262;18.036;2022-08-02T12:36:41;2.10;;;0.70;;
18834;SDS011;9546;59.262;18.036;2022-08-02T12:39:10;0.40;;;0.30;;
18834;SDS011;9546;59.262;18.036;2022-08-02T12:41:38;0.30;;;0.30;;
18834;SDS011;9546;59.262;18.036;2022-08-02T12:44:13;0.52;;;0.32;;
18834;SDS011;9546;59.262;18.036;2022-08-02T12:46:41;1.02;;;0.50;;
18834;SDS011;9546;59.262;18.036;2022-08-02T12:49:15;0.68;;;0.60;;
18834;SDS011;9546;59.262;18.036;2022-08-02T12:51:42;6.88;;;5.63;;
18834;SDS011;9546;59.262;18.036;2022-08-02T13:12:27;0.73;;;0.60;;
18834;SDS011;9546;59.262;18.036;2022-08-02T13:14:54;1.63;;;0.60;;
18834;SDS011;9546;59.262;18.036;2022-08-02T13:17:21;0.50;;;0.50;;
18834;SDS011;9546;59.262;18.036;2022-08-02T13:19:47;1.80;;;0.47;;
18834;SDS011;9546;59.262;18.036;2022-08-02T13:22:14;0.85;;;0.50;;
18834;SDS011;9546;59.262;18.036;2022-08-02T13:24:42;0.60;;;0.50;;
18834;SDS011;9546;59.262;18.036;2022-08-02T13:27:08;1.38;;;0.60;;
18834;SDS011;9546;59.262;18.036;2022-08-02T13:29:37;1.17;;;0.75;;
18834;SDS011;9546;59.262;18.036;2022-08-02T13:32:04;0.77;;;0.40;;
18834;SDS011;9546;59.262;18.036;2022-08-02T13:34:31;0.90;;;0.50;;
18834;SDS011;9546;59.262;18.036;2022-08-02T13:36:58;0.55;;;0.50;;
18834;SDS011;9546;59.262;18.036;2022-08-02T13:39:24;1.85;;;0.60;;
18834;SDS011;9546;59.262;18.036;2022-08-02T13:41:51;1.50;;;0.70;;
18834;SDS011;9546;59.262;18.036;2022-08-02T13:44:19;1.52;;;0.63;;
18834;SDS011;9546;59.262;18.036;2022-08-02T13:46:47;0.50;;;0.50;;
18834;SDS011;9546;59.262;18.036;2022-08-02T13:49:14;2.10;;;0.50;;
18834;SDS011;9546;59.262;18.036;2022-08-02T13:51:41;0.57;;;0.57;;
18834;SDS011;9546;59.262;18.036;2022-08-02T13:54:08;1.52;;;0.70;;
18834;SDS011;9546;59.262;18.036;2022-08-02T13:56:35;0.50;;;0.50;;
18834;SDS011;9546;59.262;18.036;2022-08-02T13:59:02;0.80;;;0.60;;
18834;SDS011;9546;59.262;18.036;2022-08-02T14:01:29;0.60;;;0.60;;
18834;SDS011;9546;59.262;18.036;2022-08-02T14:03:58;0.60;;;0.57;;
18834;SDS011;9546;59.262;18.036;2022-08-02T14:06:25;0.80;;;0.57;;
18834;SDS011;9546;59.262;18.036;2022-08-02T14:08:52;3.10;;;0.90;;
18834;SDS011;9546;59.262;18.036;2022-08-02T14:11:19;1.38;;;0.90;;
18834;SDS011;9546;59.262;18.036;2022-08-02T14:13:46;0.57;;;0.57;;
18834;SDS011;9546;59.262;18.036;2022-08-02T14:16:12;4.05;;;0.77;;
18834;SDS011;9546;59.262;18.036;2022-08-02T14:18:39;1.75;;;0.80;;
18834;SDS011;9546;59.262;18.036;2022-08-02T14:21:07;2.25;;;0.60;;
18834;SDS011;9546;59.262;18.036;2022-08-02T14:23:34;1.33;;;0.80;;
18834;SDS011;9546;59.262;18.036;2022-08-02T14:26:01;0.93;;;0.88;;
18834;SDS011;9546;59.262;18.036;2022-08-02T14:28:29;1.77;;;0.80;;
18834;SDS011;9546;59.262;18.036;2022-08-02T14:30:56;0.90;;;0.80;;
18834;SDS011;9546;59.262;18.036;2022-08-02T14:33:23;3.42;;;0.80;;
18834;SDS011;9546;59.262;18.036;2022-08-02T14:35:50;3.13;;;0.70;;
18834;SDS011;9546;59.262;18.036;2022-08-02T14:38:18;1.85;;;0.80;;
18834;SDS011;9546;59.262;18.036;2022-08-02T14:40:45;1.02;;;0.80;;
18834;SDS011;9546;59.262;18.036;2022-08-02T14:43:12;1.33;;;0.90;;
18834;SDS011;9546;59.262;18.036;2022-08-02T14:45:59;0.90;;;0.60;;
18834;SDS011;9546;59.262;18.036;2022-08-02T14:48:26;2.05;;;0.90;;
18834;SDS011;9546;59.262;18.036;2022-08-02T14:50:54;0.77;;;0.70;;
18834;SDS011;9546;59.262;18.036;2022-08-02T15:12:46;2.40;;;1.00;;
18834;SDS011;9546;59.262;18.036;2022-08-02T15:15:14;1.10;;;0.95;;
18834;SDS011;9546;59.262;18.036;2022-08-02T15:17:41;2.30;;;0.80;;
18834;SDS011;9546;59.262;18.036;2022-08-02T15:20:08;1.10;;;0.90;;
18834;SDS011;9546;59.262;18.036;2022-08-02T15:22:36;0.77;;;0.77;;
18834;SDS011;9546;59.262;18.036;2022-08-02T15:25:03;1.02;;;0.73;;
18834;SDS011;9546;59.262;18.036;2022-08-02T15:27:30;1.40;;;0.77;;
18834;SDS011;9546;59.262;18.036;2022-08-02T15:29:58;0.70;;;0.70;;
18834;SDS011;9546;59.262;18.036;2022-08-02T15:32:25;3.10;;;0.82;;
18834;SDS011;9546;59.262;18.036;2022-08-02T15:34:52;1.05;;;0.75;;
18834;SDS011;9546;59.262;18.036;2022-08-02T15:37:18;0.90;;;0.65;;
18834;SDS011;9546;59.262;18.036;2022-08-02T15:39:45;2.92;;;0.80;;
18834;SDS011;9546;59.262;18.036;2022-08-02T15:42:12;1.33;;;0.75;;
18834;SDS011;9546;59.262;18.036;2022-08-02T15:44:39;1.67;;;0.95;;
18834;SDS011;9546;59.262;18.036;2022-08-02T15:47:07;1.20;;;0.68;;
18834;SDS011;9546;59.262;18.036;2022-08-02T15:49:34;0.80;;;0.77;;
18834;SDS011;9546;59.262;18.036;2022-08-02T15:52:00;1.00;;;0.85;;
18834;SDS011;9546;59.262;18.036;2022-08-02T15:54:27;0.88;;;0.88;;
18834;SDS011;9546;59.262;18.036;2022-08-02T15:56:54;2.08;;;0.80;;
18834;SDS011;9546;59.262;18.036;2022-08-02T15:59:21;1.08;;;0.90;;
18834;SDS011;9546;59.262;18.036;2022-08-02T16:01:48;2.35;;;0.75;;
18834;SDS011;9546;59.262;18.036;2022-08-02T16:04:16;0.90;;;0.70;;
18834;SDS011;9546;59.262;18.036;2022-08-02T16:06:43;0.82;;;0.70;;
18834;SDS011;9546;59.262;18.036;2022-08-02T16:09:10;1.02;;;0.73;;
18834;SDS011;9546;59.262;18.036;2022-08-02T16:11:36;1.13;;;0.80;;
18834;SDS011;9546;59.262;18.036;2022-08-02T16:14:04;0.85;;;0.85;;
18834;SDS011;9546;59.262;18.036;2022-08-02T16:16:32;1.00;;;0.75;;
18834;SDS011;9546;59.262;18.036;2022-08-02T16:19:00;0.70;;;0.70;;
18834;SDS011;9546;59.262;18.036;2022-08-02T16:21:29;2.78;;;0.70;;
18834;SDS011;9546;59.262;18.036;2022-08-02T16:23:56;1.10;;;1.00;;
18834;SDS011;9546;59.262;18.036;2022-08-02T16:26:23;2.72;;;0.82;;
18834;SDS011;9546;59.262;18.036;2022-08-02T16:28:53;0.90;;;0.70;;
18834;SDS011;9546;59.262;18.036;2022-08-02T16:31:21;0.73;;;0.73;;
18834;SDS011;9546;59.262;18.036;2022-08-02T16:33:47;1.58;;;0.80;;
18834;SDS011;9546;59.262;18.036;2022-08-02T16:36:14;1.55;;;0.90;;
18834;SDS011;9546;59.262;18.036;2022-08-02T16:38:43;1.23;;;0.60;;
18834;SDS011;9546;59.262;18.036;2022-08-02T16:41:10;0.68;;;0.68;;
18834;SDS011;9546;59.262;18.036;2022-08-02T16:43:37;1.80;;;0.77;;
18834;SDS011;9546;59.262;18.036;2022-08-02T16:46:03;0.77;;;0.77;;
18834;SDS011;9546;59.262;18.036;2022-08-02T16:48:30;1.33;;;0.70;;
18834;SDS011;9546;59.262;18.036;2022-08-02T16:50:57;1.75;;;0.60;;
18834;SDS011;9546;59.262;18.036;2022-08-02T17:12:47;1.02;;;0.73;;
18834;SDS011;9546;59.262;18.036;2022-08-02T17:15:14;1.10;;;1.00;;
18834;SDS011;9546;59.262;18.036;2022-08-02T17:17:41;1.52;;;1.00;;
18834;SDS011;9546;59.262;18.036;2022-08-02T17:20:07;0.82;;;0.70;;
18834;SDS011;9546;59.262;18.036;2022-08-02T17:22:35;1.05;;;0.68;;
18834;SDS011;9546;59.262;18.036;2022-08-02T17:25:02;0.98;;;0.70;;
18834;SDS011;9546;59.262;18.036;2022-08-02T17:27:29;1.75;;;1.05;;
18834;SDS011;9546;59.262;18.036;2022-08-02T17:29:57;0.60;;;0.60;;
18834;SDS011;9546;59.262;18.036;2022-08-02T17:32:24;1.15;;;0.80;;
18834;SDS011;9546;59.262;18.036;2022-08-02T17:34:51;0.60;;;0.60;;
18834;SDS011;9546;59.262;18.036;2022-08-02T17:37:18;0.77;;;0.70;;
18834;SDS011;9546;59.262;18.036;2022-08-02T17:39:44;1.00;;;0.65;;
18834;SDS011;9546;59.262;18.036;2022-08-02T17:42:11;0.93;;;0.73;;
18834;SDS011;9546;59.262;18.036;2022-08-02T17:44:38;1.05;;;1.00;;
18834;SDS011;9546;59.262;18.036;2022-08-02T17:47:06;1.58;;;0.80;;
18834;SDS011;9546;59.262;18.036;2022-08-02T17:49:33;1.05;;;0.70;;
18834;SDS011;9546;59.262;18.036;2022-08-02T17:52:00;0.70;;;0.70;;
18834;SDS011;9546;59.262;18.036;2022-08-02T17:54:27;0.60;;;0.60;;